createdAt,value
2018-09-27T00:02:24.032Z,15.50
2018-09-27T00:04:53.095Z,15.40
2018-09-27T00:07:22.224Z,15.40
2018-09-27T00:09:51.238Z,15.40
2018-09-27T00:12:20.289Z,15.40
2018-09-27T00:14:49.034Z,15.30
2018-09-27T00:17:18.088Z,15.30
2018-09-27T00:19:47.130Z,15.40
2018-09-27T00:22:16.235Z,15.30
2018-09-27T00:24:44.595Z,15.30
2018-09-27T00:27:13.539Z,15.30
2018-09-27T00:29:42.601Z,15.40
2018-09-27T00:32:11.661Z,15.40
2018-09-27T00:34:40.346Z,15.40
2018-09-27T00:37:09.067Z,15.50
2018-09-27T00:39:37.532Z,15.50
2018-09-27T00:42:05.925Z,15.50
2018-09-27T00:44:34.650Z,15.50
2018-09-27T00:47:03.379Z,15.50
2018-09-27T00:49:33.215Z,15.50
2018-09-27T00:52:02.304Z,15.50
2018-09-27T00:54:31.099Z,15.50
2018-09-27T00:57:00.165Z,15.50
2018-09-27T00:59:28.910Z,15.50
2018-09-27T01:01:57.704Z,15.50
2018-09-27T01:04:26.492Z,15.50
2018-09-27T01:06:55.259Z,15.50
2018-09-27T01:09:23.708Z,15.50
2018-09-27T01:11:53.196Z,15.50
2018-09-27T01:14:21.923Z,15.50
2018-09-27T01:16:50.712Z,15.50
2018-09-27T01:19:18.876Z,15.60
2018-09-27T01:21:47.353Z,15.50
2018-09-27T01:24:15.834Z,15.50
2018-09-27T01:26:44.651Z,15.50
2018-09-27T01:29:13.741Z,15.50
2018-09-27T01:31:42.224Z,15.50
2018-09-27T01:34:11.013Z,15.50
2018-09-27T01:36:39.662Z,15.50
2018-09-27T01:39:08.475Z,15.50
2018-09-27T01:41:37.183Z,15.50
2018-09-27T01:44:06.049Z,15.50
2018-09-27T01:46:34.845Z,15.50
2018-09-27T01:49:03.597Z,15.50
2018-09-27T01:51:32.658Z,15.50
2018-09-27T01:54:01.632Z,15.50
2018-09-27T01:56:30.776Z,15.50
2018-09-27T01:58:59.833Z,15.50
2018-09-27T02:01:28.754Z,15.50
2018-09-27T02:04:00.993Z,15.50
2018-09-27T02:06:30.129Z,15.50
2018-09-27T02:08:59.240Z,15.50
2018-09-27T02:11:28.380Z,15.50
2018-09-27T02:13:57.107Z,15.50
2018-09-27T02:16:26.255Z,15.50
2018-09-27T02:18:55.098Z,15.50
2018-09-27T02:21:23.569Z,15.50
2018-09-27T02:23:52.618Z,15.50
2018-09-27T02:26:21.388Z,15.50
2018-09-27T02:28:50.442Z,15.40
2018-09-27T02:31:19.774Z,15.50
2018-09-27T02:33:48.631Z,15.50
2018-09-27T02:36:18.465Z,15.50
2018-09-27T02:38:47.756Z,15.50
2018-09-27T02:41:16.469Z,15.40
2018-09-27T02:43:45.558Z,15.40
2018-09-27T02:46:14.023Z,15.40
2018-09-27T02:48:43.135Z,15.40
2018-09-27T02:51:11.552Z,15.40
2018-09-27T02:53:40.252Z,15.40
2018-09-27T02:56:09.200Z,15.40
2018-09-27T02:58:37.950Z,15.40
2018-09-27T03:01:06.352Z,15.40
2018-09-27T03:03:35.422Z,15.40
2018-09-27T03:06:04.001Z,15.40
2018-09-27T03:08:32.770Z,15.40
2018-09-27T03:11:01.833Z,15.40
2018-09-27T03:13:30.910Z,15.40
2018-09-27T03:15:59.059Z,15.40
2018-09-27T03:18:27.822Z,15.40
2018-09-27T03:20:56.944Z,15.40
2018-09-27T03:23:26.393Z,15.40
2018-09-27T03:25:55.645Z,15.40
2018-09-27T03:28:25.137Z,15.40
2018-09-27T03:30:54.078Z,15.30
2018-09-27T03:33:23.317Z,15.40
2018-09-27T03:35:51.998Z,15.40
2018-09-27T03:38:20.844Z,15.40
2018-09-27T03:40:49.615Z,15.40
2018-09-27T03:43:18.627Z,15.40
2018-09-27T03:45:47.334Z,15.40
2018-09-27T03:48:15.989Z,15.30
2018-09-27T03:50:44.773Z,15.40
2018-09-27T03:53:13.528Z,15.40
2018-09-27T03:55:42.612Z,15.40
2018-09-27T03:58:12.331Z,15.40
2018-09-27T04:00:40.749Z,15.40
2018-09-27T04:03:09.883Z,15.40
2018-09-27T04:05:39.142Z,15.40
2018-09-27T04:08:08.423Z,15.40
2018-09-27T04:10:37.513Z,15.40
2018-09-27T04:13:05.908Z,15.30
2018-09-27T04:15:34.700Z,15.40
2018-09-27T04:18:03.472Z,15.40
2018-09-27T04:20:37.008Z,15.40
2018-09-27T04:23:05.481Z,15.40
2018-09-27T04:25:34.292Z,15.40
2018-09-27T04:28:03.026Z,15.40
2018-09-27T04:30:31.394Z,15.40
2018-09-27T04:32:59.536Z,15.40
2018-09-27T04:35:28.713Z,15.40
2018-09-27T04:37:57.503Z,15.40
2018-09-27T04:40:26.378Z,15.30
2018-09-27T04:42:55.370Z,15.40
2018-09-27T04:45:24.097Z,15.40
2018-09-27T04:47:52.919Z,15.40
2018-09-27T04:50:21.689Z,15.40
2018-09-27T04:52:50.465Z,15.50
2018-09-27T04:55:19.264Z,15.50
2018-09-27T04:57:47.706Z,15.50
2018-09-27T05:00:16.184Z,15.50
2018-09-27T05:02:45.288Z,15.50
2018-09-27T05:05:14.233Z,15.40
2018-09-27T05:07:43.184Z,15.40
2018-09-27T05:10:12.382Z,15.40
2018-09-27T05:12:41.504Z,15.50
2018-09-27T05:15:10.575Z,15.50
2018-09-27T05:17:39.679Z,15.50
2018-09-27T05:20:08.087Z,15.50
2018-09-27T05:22:37.054Z,15.50
2018-09-27T05:25:05.804Z,15.50
2018-09-27T05:27:34.743Z,15.50
2018-09-27T05:30:03.346Z,15.50
2018-09-27T05:32:32.251Z,15.50
2018-09-27T05:35:01.023Z,15.50
2018-09-27T05:37:29.474Z,15.50
2018-09-27T05:39:58.283Z,15.60
2018-09-27T05:42:27.327Z,15.60
2018-09-27T05:44:56.105Z,15.60
2018-09-27T05:47:25.038Z,15.70
2018-09-27T05:49:53.686Z,15.70
2018-09-27T05:52:22.662Z,15.60
2018-09-27T05:54:51.789Z,15.70
2018-09-27T05:57:20.590Z,15.70
2018-09-27T05:59:48.851Z,15.70
2018-09-27T06:02:17.000Z,15.70
2018-09-27T06:04:45.973Z,15.70
2018-09-27T06:07:14.426Z,15.70
2018-09-27T06:09:42.977Z,15.80
2018-09-27T06:12:11.569Z,15.80
2018-09-27T06:14:40.353Z,15.80
2018-09-27T06:17:09.143Z,15.90
2018-09-27T06:19:37.977Z,16.00
2018-09-27T06:22:06.483Z,16.00
2018-09-27T06:24:35.446Z,16.10
2018-09-27T06:27:04.000Z,16.10
2018-09-27T06:29:32.781Z,16.10
2018-09-27T06:32:01.527Z,16.20
2018-09-27T06:34:30.375Z,16.30
2018-09-27T06:36:59.362Z,16.40
2018-09-27T06:39:28.236Z,16.40
2018-09-27T06:41:56.741Z,16.40
2018-09-27T06:44:24.866Z,16.50
2018-09-27T06:46:53.555Z,16.60
2018-09-27T06:49:22.446Z,16.60
2018-09-27T06:51:51.044Z,16.70
2018-09-27T06:54:19.198Z,16.60
2018-09-27T06:56:48.733Z,16.50
2018-09-27T06:59:17.204Z,16.50
2018-09-27T07:01:45.935Z,16.40
2018-09-27T07:04:14.726Z,16.40
2018-09-27T07:06:43.147Z,16.40
2018-09-27T07:09:13.083Z,16.50
2018-09-27T07:11:41.972Z,16.60
2018-09-27T07:14:11.344Z,16.60
2018-09-27T07:16:40.226Z,16.60
2018-09-27T07:19:09.688Z,16.70
2018-09-27T07:21:38.958Z,16.60
2018-09-27T07:24:07.251Z,16.70
2018-09-27T07:26:35.751Z,16.80
2018-09-27T07:29:04.715Z,16.80
2018-09-27T07:31:33.839Z,16.90
2018-09-27T07:34:02.675Z,16.90
2018-09-27T07:36:30.907Z,16.90
2018-09-27T07:38:59.798Z,16.90
2018-09-27T07:41:28.633Z,16.80
2018-09-27T07:43:57.425Z,16.90
2018-09-27T07:46:26.246Z,16.90
2018-09-27T07:48:54.682Z,16.90
2018-09-27T07:51:23.462Z,17.00
2018-09-27T07:53:51.969Z,17.10
2018-09-27T07:56:20.821Z,17.20
2018-09-27T07:58:49.623Z,17.30
2018-09-27T08:01:18.461Z,17.20
2018-09-27T08:03:47.320Z,17.30
2018-09-27T08:06:16.136Z,17.40
2018-09-27T08:08:44.777Z,17.60
2018-09-27T08:11:13.812Z,17.80
2018-09-27T08:13:43.402Z,17.90
2018-09-27T08:16:12.189Z,18.20
2018-09-27T08:18:41.102Z,18.20
2018-09-27T08:21:10.002Z,18.50
2018-09-27T08:23:38.944Z,19.00
2018-09-27T08:26:07.798Z,19.50
2018-09-27T08:28:36.633Z,20.30
2018-09-27T08:31:04.755Z,20.80
2018-09-27T08:33:33.070Z,20.90
2018-09-27T08:36:01.900Z,20.90
2018-09-27T08:38:30.711Z,21.20
2018-09-27T08:40:59.581Z,21.20
2018-09-27T08:43:28.336Z,21.60
2018-09-27T08:45:57.111Z,22.00
2018-09-27T08:48:26.041Z,22.10
2018-09-27T08:50:54.804Z,22.10
2018-09-27T08:53:23.605Z,22.20
2018-09-27T08:55:52.294Z,22.30
2018-09-27T08:58:21.196Z,22.80
2018-09-27T09:00:50.072Z,23.50
2018-09-27T09:03:18.641Z,23.50
2018-09-27T09:05:47.233Z,24.00
2018-09-27T09:08:16.226Z,23.80
2018-09-27T09:10:44.994Z,23.80
2018-09-27T09:13:13.429Z,24.10
2018-09-27T09:15:42.219Z,24.70
2018-09-27T09:18:10.826Z,24.40
2018-09-27T09:20:39.840Z,24.60
2018-09-27T09:23:08.302Z,24.60
2018-09-27T09:25:37.170Z,24.50
2018-09-27T09:28:05.682Z,24.30
2018-09-27T09:30:34.441Z,23.70
2018-09-27T09:33:03.316Z,23.50
2018-09-27T09:35:32.183Z,24.10
2018-09-27T09:38:01.179Z,24.80
2018-09-27T09:40:29.884Z,24.70
2018-09-27T09:42:59.236Z,25.50
2018-09-27T09:45:28.020Z,25.90
2018-09-27T09:47:56.854Z,25.50
2018-09-27T09:50:25.280Z,24.80
2018-09-27T09:52:54.017Z,25.20
2018-09-27T09:55:22.794Z,25.40
2018-09-27T09:57:51.243Z,25.40
2018-09-27T10:00:20.117Z,25.60
2018-09-27T10:02:48.689Z,25.50
2018-09-27T10:05:17.165Z,25.40
2018-09-27T10:07:45.741Z,25.40
2018-09-27T10:10:13.858Z,25.90
2018-09-27T10:12:42.339Z,26.10
2018-09-27T10:15:11.121Z,26.20
2018-09-27T10:17:39.997Z,25.60
2018-09-27T10:20:08.454Z,25.60
2018-09-27T10:22:37.232Z,26.10
2018-09-27T10:25:05.375Z,26.10
2018-09-27T10:27:40.529Z,26.30
2018-09-27T10:30:09.020Z,25.80
2018-09-27T10:32:37.775Z,26.00
2018-09-27T10:35:06.250Z,26.90
2018-09-27T10:37:35.112Z,27.40
2018-09-27T10:40:03.552Z,27.10
2018-09-27T10:42:32.386Z,26.10
2018-09-27T10:45:01.237Z,25.40
2018-09-27T10:47:29.856Z,25.00
2018-09-27T10:49:58.604Z,25.60
2018-09-27T10:52:27.373Z,25.60
2018-09-27T10:54:56.249Z,26.30
2018-09-27T10:57:25.269Z,26.90
2018-09-27T10:59:53.745Z,27.40
2018-09-27T11:02:22.903Z,28.70
2018-09-27T11:04:51.337Z,29.70
2018-09-27T11:07:20.850Z,29.20
2018-09-27T11:09:49.295Z,29.30
2018-09-27T11:12:18.127Z,28.90
2018-09-27T11:14:46.895Z,28.40
2018-09-27T11:17:15.313Z,28.70
2018-09-27T11:19:43.804Z,28.90
2018-09-27T11:22:12.609Z,28.90
2018-09-27T11:24:41.753Z,28.90
2018-09-27T11:27:10.491Z,28.50
2018-09-27T11:29:44.706Z,28.50
2018-09-27T11:32:19.007Z,28.90
2018-09-27T11:34:47.806Z,29.50
2018-09-27T11:37:16.235Z,29.50
2018-09-27T11:39:45.086Z,29.50
2018-09-27T11:42:13.947Z,27.80
2018-09-27T11:44:42.864Z,26.50
2018-09-27T11:47:11.643Z,26.10
2018-09-27T11:49:40.544Z,26.40
2018-09-27T11:52:09.322Z,28.10
2018-09-27T11:54:38.203Z,29.20
2018-09-27T11:57:08.394Z,29.50
2018-09-27T11:59:37.212Z,29.70
2018-09-27T12:02:05.880Z,29.50
2018-09-27T12:04:34.647Z,29.40
2018-09-27T12:07:03.426Z,29.90
2018-09-27T12:09:32.450Z,30.30
2018-09-27T12:12:01.583Z,31.20
2018-09-27T12:14:30.453Z,32.20
2018-09-27T12:16:59.048Z,32.40
2018-09-27T12:19:27.858Z,31.90
2018-09-27T12:21:56.453Z,31.80
2018-09-27T12:24:25.914Z,30.60
2018-09-27T12:26:54.717Z,30.70
2018-09-27T12:29:23.515Z,30.40
2018-09-27T12:31:52.029Z,28.60
2018-09-27T12:34:20.807Z,28.50
2018-09-27T12:36:49.599Z,29.00
2018-09-27T12:39:18.401Z,29.20
2018-09-27T12:41:47.252Z,29.40
2018-09-27T12:44:16.133Z,30.40
2018-09-27T12:46:44.648Z,31.40
2018-09-27T12:49:13.249Z,31.80
2018-09-27T12:51:41.752Z,31.90
2018-09-27T12:54:10.724Z,31.20
2018-09-27T12:56:38.843Z,30.90
2018-09-27T12:59:07.565Z,31.00
2018-09-27T13:01:36.434Z,30.90
2018-09-27T13:04:05.503Z,31.40
2018-09-27T13:06:34.243Z,31.50
2018-09-27T13:09:03.359Z,30.00
2018-09-27T13:11:31.528Z,29.50
2018-09-27T13:14:00.402Z,29.50
2018-09-27T13:16:28.919Z,30.30
2018-09-27T13:18:58.059Z,31.20
2018-09-27T13:21:25.937Z,31.10
2018-09-27T13:23:54.521Z,31.30
2018-09-27T13:26:23.417Z,31.80
2018-09-27T13:28:52.152Z,31.50
2018-09-27T13:31:21.118Z,31.70
2018-09-27T13:33:50.378Z,32.10
2018-09-27T13:36:19.078Z,31.40
2018-09-27T13:38:47.960Z,32.70
2018-09-27T13:41:16.953Z,32.80
2018-09-27T13:43:45.820Z,32.70
2018-09-27T13:46:14.834Z,32.40
2018-09-27T13:48:43.480Z,31.90
2018-09-27T13:51:12.016Z,31.20
2018-09-27T13:53:40.499Z,30.90
2018-09-27T13:56:09.047Z,30.60
2018-09-27T13:58:37.533Z,30.50
2018-09-27T14:01:05.721Z,30.10
2018-09-27T14:03:34.303Z,29.70
2018-09-27T14:06:03.056Z,30.00
2018-09-27T14:08:31.832Z,30.20
2018-09-27T14:11:00.639Z,30.40
2018-09-27T14:13:29.021Z,30.30
2018-09-27T14:15:57.781Z,30.40
2018-09-27T14:18:25.887Z,31.00
2018-09-27T14:20:54.370Z,31.10
2018-09-27T14:23:22.808Z,31.30
2018-09-27T14:25:51.346Z,31.20
2018-09-27T14:28:20.274Z,30.90
2018-09-27T14:30:49.116Z,31.10
2018-09-27T14:33:18.016Z,31.20
2018-09-27T14:35:46.893Z,31.20
2018-09-27T14:38:15.486Z,30.80
2018-09-27T14:40:43.986Z,30.50
2018-09-27T14:43:12.775Z,30.90
2018-09-27T14:45:41.486Z,31.50
2018-09-27T14:48:10.278Z,31.90
2018-09-27T14:50:39.018Z,31.30
2018-09-27T14:53:07.779Z,30.60
2018-09-27T14:55:36.527Z,30.40
2018-09-27T14:58:04.625Z,30.50
2018-09-27T15:00:33.409Z,30.30
2018-09-27T15:03:02.634Z,30.10
2018-09-27T15:05:31.089Z,30.70
2018-09-27T15:07:59.889Z,30.40
2018-09-27T15:10:28.509Z,29.50
2018-09-27T15:12:57.368Z,29.00
2018-09-27T15:15:26.155Z,28.90
2018-09-27T15:17:55.031Z,28.50
2018-09-27T15:20:24.082Z,28.50
2018-09-27T15:22:52.320Z,28.20
2018-09-27T15:25:21.103Z,28.50
2018-09-27T15:27:50.197Z,28.10
2018-09-27T15:30:18.633Z,27.20
2018-09-27T15:32:47.496Z,26.90
2018-09-27T15:35:15.969Z,26.80
2018-09-27T15:37:44.787Z,27.00
2018-09-27T15:40:13.256Z,27.10
2018-09-27T15:42:41.699Z,26.60
2018-09-27T15:45:10.358Z,26.40
2018-09-27T15:47:38.852Z,26.10
2018-09-27T15:50:06.958Z,26.40
2018-09-27T15:52:35.383Z,26.40
2018-09-27T15:55:03.492Z,26.20
2018-09-27T15:57:32.313Z,26.20
2018-09-27T16:00:01.107Z,25.90
2018-09-27T16:02:29.842Z,25.90
2018-09-27T16:04:58.017Z,25.80
2018-09-27T16:07:26.599Z,26.10
2018-09-27T16:09:55.027Z,25.90
2018-09-27T16:12:23.440Z,25.30
2018-09-27T16:14:52.323Z,24.60
2018-09-27T16:17:21.245Z,24.00
2018-09-27T16:19:49.749Z,23.50
2018-09-27T16:22:18.507Z,23.20
2018-09-27T16:24:47.904Z,23.10
2018-09-27T16:27:16.686Z,22.80
2018-09-27T16:29:45.538Z,22.70
2018-09-27T16:32:14.488Z,22.60
2018-09-27T16:34:42.984Z,22.50
2018-09-27T16:37:11.800Z,22.50
2018-09-27T16:39:40.567Z,22.30
2018-09-27T16:42:09.086Z,22.30
2018-09-27T16:44:37.912Z,22.20
2018-09-27T16:47:06.074Z,22.10
2018-09-27T16:49:34.869Z,22.10
2018-09-27T16:52:03.704Z,22.00
2018-09-27T16:54:32.350Z,22.00
2018-09-27T16:57:01.145Z,21.90
2018-09-27T16:59:29.989Z,21.80
2018-09-27T17:01:59.051Z,21.80
2018-09-27T17:04:27.614Z,21.80
2018-09-27T17:06:56.494Z,21.70
2018-09-27T17:09:25.483Z,21.70
2018-09-27T17:11:54.305Z,21.70
2018-09-27T17:14:23.124Z,21.60
2018-09-27T17:16:51.651Z,21.50
2018-09-27T17:19:20.129Z,21.50
2018-09-27T17:21:48.946Z,21.50
2018-09-27T17:24:17.915Z,21.50
2018-09-27T17:26:46.464Z,21.30
2018-09-27T17:29:14.926Z,21.30
2018-09-27T17:31:43.793Z,21.20
2018-09-27T17:34:12.734Z,21.10
2018-09-27T17:36:41.527Z,21.10
2018-09-27T17:39:10.293Z,21.10
2018-09-27T17:41:39.119Z,21.10
2018-09-27T17:44:08.133Z,21.00
2018-09-27T17:46:36.632Z,20.90
2018-09-27T17:49:05.574Z,20.80
2018-09-27T17:51:34.113Z,20.70
2018-09-27T17:54:02.985Z,20.60
2018-09-27T17:56:32.475Z,20.60
2018-09-27T17:59:01.372Z,20.50
2018-09-27T18:01:30.389Z,20.40
2018-09-27T18:03:59.389Z,20.40
2018-09-27T18:06:28.228Z,20.40
2018-09-27T18:08:56.403Z,20.30
2018-09-27T18:11:25.255Z,20.20
2018-09-27T18:13:54.295Z,20.20
2018-09-27T18:16:23.123Z,20.10
2018-09-27T18:18:51.919Z,20.10
2018-09-27T18:21:20.676Z,20.10
2018-09-27T18:23:49.263Z,20.10
2018-09-27T18:26:18.112Z,20.10
2018-09-27T18:28:46.214Z,20.00
2018-09-27T18:31:15.340Z,19.90
2018-09-27T18:33:44.154Z,19.90
2018-09-27T18:36:13.014Z,19.90
2018-09-27T18:38:41.973Z,19.90
2018-09-27T18:41:11.384Z,19.80
2018-09-27T18:43:39.930Z,19.80
2018-09-27T18:46:08.333Z,19.70
2018-09-27T18:48:36.804Z,19.60
2018-09-27T18:51:05.240Z,19.50
2018-09-27T18:53:34.035Z,19.50
2018-09-27T18:56:02.833Z,19.50
2018-09-27T18:58:31.622Z,19.50
2018-09-27T19:01:00.435Z,19.40
2018-09-27T19:03:28.915Z,19.40
2018-09-27T19:05:57.330Z,19.30
2018-09-27T19:08:26.172Z,19.30
2018-09-27T19:10:54.957Z,19.30
2018-09-27T19:13:23.836Z,19.30
2018-09-27T19:15:52.635Z,19.20
2018-09-27T19:18:21.107Z,19.20
2018-09-27T19:20:49.869Z,19.10
2018-09-27T19:23:18.740Z,19.00
2018-09-27T19:25:47.254Z,19.00
2018-09-27T19:28:15.571Z,19.00
2018-09-27T19:30:43.982Z,18.90
2018-09-27T19:33:12.428Z,18.90
2018-09-27T19:35:41.262Z,18.90
2018-09-27T19:38:10.053Z,18.80
2018-09-27T19:40:38.572Z,18.70
2018-09-27T19:43:07.135Z,18.70
2018-09-27T19:45:35.906Z,18.60
2018-09-27T19:48:04.714Z,18.50
2018-09-27T19:50:33.191Z,18.50
2018-09-27T19:53:02.038Z,18.40
2018-09-27T19:55:30.570Z,18.40
2018-09-27T19:57:59.423Z,18.30
2018-09-27T20:00:28.378Z,18.20
2018-09-27T20:02:57.010Z,18.20
2018-09-27T20:05:25.556Z,18.10
2018-09-27T20:07:54.033Z,18.10
2018-09-27T20:10:23.903Z,18.10
2018-09-27T20:12:52.307Z,18.10
2018-09-27T20:15:20.414Z,18.00
2018-09-27T20:17:49.257Z,17.90
2018-09-27T20:20:17.780Z,17.80
2018-09-27T20:22:46.242Z,17.80
2018-09-27T20:25:15.029Z,17.70
2018-09-27T20:27:43.686Z,17.60
2018-09-27T20:30:12.176Z,17.50
2018-09-27T20:32:40.689Z,17.50
2018-09-27T20:35:08.849Z,17.50
2018-09-27T20:37:37.061Z,17.40
2018-09-27T20:40:05.247Z,17.30
2018-09-27T20:42:34.229Z,17.20
2018-09-27T20:45:02.710Z,17.30
2018-09-27T20:47:31.632Z,17.30
2018-09-27T20:50:02.195Z,17.30
2018-09-27T20:52:31.059Z,17.20
2018-09-27T20:55:00.048Z,17.30
2018-09-27T20:57:28.853Z,17.20
2018-09-27T20:59:57.313Z,17.10
2018-09-27T21:02:25.965Z,17.10
2018-09-27T21:04:54.402Z,17.10
2018-09-27T21:07:23.191Z,17.10
2018-09-27T21:09:51.674Z,17.10
2018-09-27T21:12:20.244Z,17.10
2018-09-27T21:14:49.032Z,17.10
2018-09-27T21:17:17.839Z,17.10
2018-09-27T21:19:46.674Z,17.10
2018-09-27T21:22:15.684Z,17.10
2018-09-27T21:24:44.485Z,17.10
2018-09-27T21:27:13.666Z,16.90
2018-09-27T21:29:42.433Z,16.90
2018-09-27T21:32:11.251Z,16.80
2018-09-27T21:34:46.076Z,16.80
2018-09-27T21:37:14.828Z,16.80
2018-09-27T21:39:43.305Z,16.80
2018-09-27T21:42:12.056Z,16.70
2018-09-27T21:44:40.783Z,16.60
2018-09-27T21:47:09.609Z,16.60
2018-09-27T21:49:38.144Z,16.50
2018-09-27T21:52:06.715Z,16.40
2018-09-27T21:54:35.157Z,16.30
2018-09-27T21:57:04.191Z,16.20
2018-09-27T21:59:32.992Z,16.20
2018-09-27T22:02:01.480Z,16.20
2018-09-27T22:04:30.362Z,16.20
2018-09-27T22:06:59.175Z,16.20
2018-09-27T22:09:27.715Z,16.10
2018-09-27T22:11:56.622Z,16.20
2018-09-27T22:14:25.067Z,16.20
2018-09-27T22:16:53.829Z,16.30
2018-09-27T22:19:22.717Z,16.20
2018-09-27T22:21:51.488Z,16.20
2018-09-27T22:24:19.948Z,16.20
2018-09-27T22:26:48.781Z,16.20
2018-09-27T22:29:17.545Z,16.20
2018-09-27T22:31:46.355Z,16.10
2018-09-27T22:34:15.116Z,16.10
2018-09-27T22:36:44.158Z,16.10
2018-09-27T22:39:12.991Z,16.00
2018-09-27T22:41:41.824Z,16.00
2018-09-27T22:44:10.620Z,15.90
2018-09-27T22:46:38.758Z,15.90
2018-09-27T22:49:07.851Z,15.80
2018-09-27T22:51:36.407Z,15.80
2018-09-27T22:54:05.200Z,15.80
2018-09-27T22:56:34.012Z,15.70
2018-09-27T22:59:02.855Z,15.70
2018-09-27T23:01:31.955Z,15.60
2018-09-27T23:04:00.722Z,15.60
2018-09-27T23:06:29.781Z,15.50
2018-09-27T23:08:58.320Z,15.50
2018-09-27T23:11:31.788Z,15.50
2018-09-27T23:14:01.613Z,15.50
2018-09-27T23:16:30.711Z,15.50
2018-09-27T23:19:00.494Z,15.50
2018-09-27T23:21:28.843Z,15.50
2018-09-27T23:23:57.961Z,15.40
2018-09-27T23:26:26.903Z,15.40
2018-09-27T23:28:55.577Z,15.40
2018-09-27T23:31:24.524Z,15.30
2018-09-27T23:33:53.280Z,15.20
2018-09-27T23:36:22.016Z,15.20
2018-09-27T23:38:51.132Z,15.20
2018-09-27T23:41:20.475Z,15.10
2018-09-27T23:43:49.532Z,15.00
2018-09-27T23:46:18.221Z,15.00
2018-09-27T23:48:47.291Z,15.00
2018-09-27T23:51:16.025Z,14.90
2018-09-27T23:53:45.066Z,14.90
2018-09-27T23:56:13.933Z,14.80
2018-09-27T23:58:42.995Z,14.80
